sensor_id;sensor_type;location;lat;lon;timestamp;P1;durP1;ratioP1;P2;durP2;ratioP2
6955;SDS011;50345;51.136;16.886;2024-03-08T00:01:06;51.60;;;28.93;;
6955;SDS011;50345;51.136;16.886;2024-03-08T00:03:31;45.70;;;28.33;;
6955;SDS011;50345;51.136;16.886;2024-03-08T00:05:57;39.67;;;24.77;;
6955;SDS011;50345;51.136;16.886;2024-03-08T00:08:23;42.00;;;27.50;;
6955;SDS011;50345;51.136;16.886;2024-03-08T00:10:49;38.78;;;26.80;;
6955;SDS011;50345;51.136;16.886;2024-03-08T00:13:15;37.83;;;26.70;;
6955;SDS011;50345;51.136;16.886;2024-03-08T00:15:41;45.10;;;28.60;;
6955;SDS011;50345;51.136;16.886;2024-03-08T00:18:06;49.07;;;31.73;;
6955;SDS011;50345;51.136;16.886;2024-03-08T00:20:32;48.90;;;32.30;;
6955;SDS011;50345;51.136;16.886;2024-03-08T00:22:58;60.05;;;36.08;;
6955;SDS011;50345;51.136;16.886;2024-03-08T00:25:24;62.37;;;36.17;;
6955;SDS011;50345;51.136;16.886;2024-03-08T00:27:49;47.57;;;32.33;;
6955;SDS011;50345;51.136;16.886;2024-03-08T00:30:15;55.27;;;33.00;;
6955;SDS011;50345;51.136;16.886;2024-03-08T00:32:41;56.57;;;33.50;;
6955;SDS011;50345;51.136;16.886;2024-03-08T00:35:06;48.90;;;33.60;;
6955;SDS011;50345;51.136;16.886;2024-03-08T00:37:32;47.93;;;31.07;;
6955;SDS011;50345;51.136;16.886;2024-03-08T00:39:59;47.13;;;31.60;;
6955;SDS011;50345;51.136;16.886;2024-03-08T00:42:25;44.10;;;30.20;;
6955;SDS011;50345;51.136;16.886;2024-03-08T00:44:50;47.00;;;29.47;;
6955;SDS011;50345;51.136;16.886;2024-03-08T00:47:16;44.07;;;31.20;;
6955;SDS011;50345;51.136;16.886;2024-03-08T00:49:42;48.85;;;31.23;;
6955;SDS011;50345;51.136;16.886;2024-03-08T00:52:08;61.37;;;36.17;;
6955;SDS011;50345;51.136;16.886;2024-03-08T00:54:34;53.78;;;35.00;;
6955;SDS011;50345;51.136;16.886;2024-03-08T00:57:02;52.33;;;35.03;;
6955;SDS011;50345;51.136;16.886;2024-03-08T00:59:28;56.60;;;34.10;;
6955;SDS011;50345;51.136;16.886;2024-03-08T01:01:55;50.80;;;34.10;;
6955;SDS011;50345;51.136;16.886;2024-03-08T01:04:21;54.80;;;31.93;;
6955;SDS011;50345;51.136;16.886;2024-03-08T01:06:48;49.63;;;31.95;;
6955;SDS011;50345;51.136;16.886;2024-03-08T01:09:13;44.27;;;31.10;;
6955;SDS011;50345;51.136;16.886;2024-03-08T01:11:39;43.33;;;29.13;;
6955;SDS011;50345;51.136;16.886;2024-03-08T01:14:05;44.10;;;31.73;;
6955;SDS011;50345;51.136;16.886;2024-03-08T01:16:31;43.88;;;29.02;;
6955;SDS011;50345;51.136;16.886;2024-03-08T01:18:58;47.95;;;32.45;;
6955;SDS011;50345;51.136;16.886;2024-03-08T01:21:24;40.57;;;29.03;;
6955;SDS011;50345;51.136;16.886;2024-03-08T01:23:49;44.87;;;29.83;;
6955;SDS011;50345;51.136;16.886;2024-03-08T01:26:15;49.40;;;31.73;;
6955;SDS011;50345;51.136;16.886;2024-03-08T01:28:41;49.30;;;30.70;;
6955;SDS011;50345;51.136;16.886;2024-03-08T01:31:06;46.37;;;29.37;;
6955;SDS011;50345;51.136;16.886;2024-03-08T01:33:32;42.00;;;31.27;;
6955;SDS011;50345;51.136;16.886;2024-03-08T01:35:58;41.27;;;29.57;;
6955;SDS011;50345;51.136;16.886;2024-03-08T01:38:23;41.90;;;29.30;;
6955;SDS011;50345;51.136;16.886;2024-03-08T01:40:49;44.17;;;30.63;;
6955;SDS011;50345;51.136;16.886;2024-03-08T01:45:47;47.92;;;31.83;;
6955;SDS011;50345;51.136;16.886;2024-03-08T01:48:14;44.87;;;30.70;;
6955;SDS011;50345;51.136;16.886;2024-03-08T01:50:40;40.85;;;29.85;;
6955;SDS011;50345;51.136;16.886;2024-03-08T01:53:06;43.25;;;30.58;;
6955;SDS011;50345;51.136;16.886;2024-03-08T01:55:35;41.58;;;29.23;;
6955;SDS011;50345;51.136;16.886;2024-03-08T01:58:01;45.67;;;30.40;;
6955;SDS011;50345;51.136;16.886;2024-03-08T02:00:29;41.75;;;29.42;;
6955;SDS011;50345;51.136;16.886;2024-03-08T02:02:55;42.27;;;28.07;;
6955;SDS011;50345;51.136;16.886;2024-03-08T02:05:22;45.17;;;29.42;;
6955;SDS011;50345;51.136;16.886;2024-03-08T02:07:48;44.28;;;29.25;;
6955;SDS011;50345;51.136;16.886;2024-03-08T02:10:14;44.97;;;28.07;;
6955;SDS011;50345;51.136;16.886;2024-03-08T02:12:40;44.27;;;27.80;;
6955;SDS011;50345;51.136;16.886;2024-03-08T02:15:06;39.53;;;28.77;;
6955;SDS011;50345;51.136;16.886;2024-03-08T02:17:32;44.40;;;30.30;;
6955;SDS011;50345;51.136;16.886;2024-03-08T02:20:01;40.17;;;28.98;;
6955;SDS011;50345;51.136;16.886;2024-03-08T02:22:28;39.17;;;30.65;;
6955;SDS011;50345;51.136;16.886;2024-03-08T02:24:55;43.25;;;31.13;;
6955;SDS011;50345;51.136;16.886;2024-03-08T02:27:24;42.88;;;29.75;;
6955;SDS011;50345;51.136;16.886;2024-03-08T02:29:55;39.65;;;27.48;;
6955;SDS011;50345;51.136;16.886;2024-03-08T02:32:21;45.63;;;29.92;;
6955;SDS011;50345;51.136;16.886;2024-03-08T02:34:48;45.50;;;30.27;;
6955;SDS011;50345;51.136;16.886;2024-03-08T02:37:14;47.50;;;32.28;;
6955;SDS011;50345;51.136;16.886;2024-03-08T02:39:40;43.08;;;30.42;;
6955;SDS011;50345;51.136;16.886;2024-03-08T02:42:06;44.93;;;31.87;;
6955;SDS011;50345;51.136;16.886;2024-03-08T02:44:32;45.70;;;30.57;;
6955;SDS011;50345;51.136;16.886;2024-03-08T02:46:58;43.80;;;29.55;;
6955;SDS011;50345;51.136;16.886;2024-03-08T02:49:25;38.83;;;27.00;;
6955;SDS011;50345;51.136;16.886;2024-03-08T02:51:51;42.78;;;28.42;;
6955;SDS011;50345;51.136;16.886;2024-03-08T02:54:17;41.17;;;28.70;;
6955;SDS011;50345;51.136;16.886;2024-03-08T02:56:44;46.47;;;28.67;;
6955;SDS011;50345;51.136;16.886;2024-03-08T02:59:11;40.13;;;27.80;;
6955;SDS011;50345;51.136;16.886;2024-03-08T03:01:37;40.78;;;27.08;;
6955;SDS011;50345;51.136;16.886;2024-03-08T03:04:04;38.40;;;26.80;;
6955;SDS011;50345;51.136;16.886;2024-03-08T03:06:30;43.97;;;30.23;;
6955;SDS011;50345;51.136;16.886;2024-03-08T03:08:56;39.33;;;29.88;;
6955;SDS011;50345;51.136;16.886;2024-03-08T03:11:22;39.17;;;27.17;;
6955;SDS011;50345;51.136;16.886;2024-03-08T03:13:48;42.20;;;28.43;;
6955;SDS011;50345;51.136;16.886;2024-03-08T03:16:17;40.10;;;29.30;;
6955;SDS011;50345;51.136;16.886;2024-03-08T03:18:44;43.15;;;29.92;;
6955;SDS011;50345;51.136;16.886;2024-03-08T03:21:10;44.30;;;29.40;;
6955;SDS011;50345;51.136;16.886;2024-03-08T03:23:38;40.50;;;29.42;;
6955;SDS011;50345;51.136;16.886;2024-03-08T03:26:05;43.78;;;28.38;;
6955;SDS011;50345;51.136;16.886;2024-03-08T03:28:32;41.28;;;28.20;;
6955;SDS011;50345;51.136;16.886;2024-03-08T03:30:58;43.00;;;29.60;;
6955;SDS011;50345;51.136;16.886;2024-03-08T03:33:24;43.77;;;28.13;;
6955;SDS011;50345;51.136;16.886;2024-03-08T03:35:50;40.38;;;28.00;;
6955;SDS011;50345;51.136;16.886;2024-03-08T03:38:16;44.92;;;27.70;;
6955;SDS011;50345;51.136;16.886;2024-03-08T03:40:42;42.60;;;28.55;;
6955;SDS011;50345;51.136;16.886;2024-03-08T03:43:10;42.40;;;28.75;;
6955;SDS011;50345;51.136;16.886;2024-03-08T03:45:36;35.47;;;27.70;;
6955;SDS011;50345;51.136;16.886;2024-03-08T03:48:02;42.73;;;27.17;;
6955;SDS011;50345;51.136;16.886;2024-03-08T03:50:33;45.00;;;28.10;;
6955;SDS011;50345;51.136;16.886;2024-03-08T03:52:59;41.43;;;28.60;;
6955;SDS011;50345;51.136;16.886;2024-03-08T03:55:25;47.70;;;27.70;;
6955;SDS011;50345;51.136;16.886;2024-03-08T03:57:52;40.95;;;27.70;;
6955;SDS011;50345;51.136;16.886;2024-03-08T04:00:17;44.40;;;29.17;;
6955;SDS011;50345;51.136;16.886;2024-03-08T04:02:43;38.08;;;27.90;;
6955;SDS011;50345;51.136;16.886;2024-03-08T04:05:09;41.42;;;27.20;;
6955;SDS011;50345;51.136;16.886;2024-03-08T04:07:36;44.38;;;28.42;;
6955;SDS011;50345;51.136;16.886;2024-03-08T04:10:02;40.60;;;26.73;;
6955;SDS011;50345;51.136;16.886;2024-03-08T04:12:28;41.10;;;28.65;;
6955;SDS011;50345;51.136;16.886;2024-03-08T04:14:55;38.90;;;26.48;;
6955;SDS011;50345;51.136;16.886;2024-03-08T04:17:21;45.22;;;27.70;;
6955;SDS011;50345;51.136;16.886;2024-03-08T04:19:47;39.97;;;27.20;;
6955;SDS011;50345;51.136;16.886;2024-03-08T04:22:15;37.17;;;27.58;;
6955;SDS011;50345;51.136;16.886;2024-03-08T04:24:42;38.42;;;27.05;;
6955;SDS011;50345;51.136;16.886;2024-03-08T04:27:08;37.17;;;26.15;;
6955;SDS011;50345;51.136;16.886;2024-03-08T04:29:34;38.70;;;27.97;;
6955;SDS011;50345;51.136;16.886;2024-03-08T04:31:59;36.67;;;26.73;;
6955;SDS011;50345;51.136;16.886;2024-03-08T04:34:28;42.17;;;26.98;;
6955;SDS011;50345;51.136;16.886;2024-03-08T04:36:54;38.60;;;25.90;;
6955;SDS011;50345;51.136;16.886;2024-03-08T04:39:22;41.65;;;27.52;;
6955;SDS011;50345;51.136;16.886;2024-03-08T04:41:47;39.37;;;28.07;;
6955;SDS011;50345;51.136;16.886;2024-03-08T04:44:14;40.72;;;26.50;;
6955;SDS011;50345;51.136;16.886;2024-03-08T04:46:40;38.90;;;26.30;;
6955;SDS011;50345;51.136;16.886;2024-03-08T04:49:06;38.60;;;25.00;;
6955;SDS011;50345;51.136;16.886;2024-03-08T04:51:32;41.70;;;27.08;;
6955;SDS011;50345;51.136;16.886;2024-03-08T04:53:58;45.95;;;27.55;;
6955;SDS011;50345;51.136;16.886;2024-03-08T04:56:24;37.75;;;26.17;;
6955;SDS011;50345;51.136;16.886;2024-03-08T04:58:50;40.73;;;28.00;;
6955;SDS011;50345;51.136;16.886;2024-03-08T05:01:16;44.23;;;26.93;;
6955;SDS011;50345;51.136;16.886;2024-03-08T05:03:42;46.03;;;28.20;;
6955;SDS011;50345;51.136;16.886;2024-03-08T05:06:07;40.97;;;28.53;;
6955;SDS011;50345;51.136;16.886;2024-03-08T05:08:33;38.20;;;26.23;;
6955;SDS011;50345;51.136;16.886;2024-03-08T05:10:59;40.65;;;26.83;;
6955;SDS011;50345;51.136;16.886;2024-03-08T05:13:28;33.78;;;26.50;;
6955;SDS011;50345;51.136;16.886;2024-03-08T05:15:55;43.35;;;27.77;;
6955;SDS011;50345;51.136;16.886;2024-03-08T05:18:23;38.65;;;27.50;;
6955;SDS011;50345;51.136;16.886;2024-03-08T05:20:49;47.33;;;29.97;;
6955;SDS011;50345;51.136;16.886;2024-03-08T05:23:16;44.55;;;29.85;;
6955;SDS011;50345;51.136;16.886;2024-03-08T05:25:41;42.77;;;29.33;;
6955;SDS011;50345;51.136;16.886;2024-03-08T05:28:07;46.43;;;26.43;;
6955;SDS011;50345;51.136;16.886;2024-03-08T05:30:33;35.70;;;25.80;;
6955;SDS011;50345;51.136;16.886;2024-03-08T05:33:01;38.83;;;28.88;;
6955;SDS011;50345;51.136;16.886;2024-03-08T05:35:26;38.70;;;27.20;;
6955;SDS011;50345;51.136;16.886;2024-03-08T05:37:52;47.73;;;31.90;;
6955;SDS011;50345;51.136;16.886;2024-03-08T05:40:17;42.87;;;28.27;;
6955;SDS011;50345;51.136;16.886;2024-03-08T05:42:44;40.05;;;27.08;;
6955;SDS011;50345;51.136;16.886;2024-03-08T05:45:09;41.63;;;29.07;;
6955;SDS011;50345;51.136;16.886;2024-03-08T05:47:36;41.67;;;29.65;;
6955;SDS011;50345;51.136;16.886;2024-03-08T05:50:01;44.87;;;30.70;;
6955;SDS011;50345;51.136;16.886;2024-03-08T05:52:27;41.63;;;28.27;;
6955;SDS011;50345;51.136;16.886;2024-03-08T05:54:52;48.60;;;30.77;;
6955;SDS011;50345;51.136;16.886;2024-03-08T05:57:18;42.23;;;30.30;;
6955;SDS011;50345;51.136;16.886;2024-03-08T05:59:44;45.63;;;30.90;;
6955;SDS011;50345;51.136;16.886;2024-03-08T06:02:09;44.67;;;28.50;;
6955;SDS011;50345;51.136;16.886;2024-03-08T06:04:35;45.03;;;27.83;;
6955;SDS011;50345;51.136;16.886;2024-03-08T06:07:00;43.93;;;32.17;;
6955;SDS011;50345;51.136;16.886;2024-03-08T06:09:28;42.63;;;28.08;;
6955;SDS011;50345;51.136;16.886;2024-03-08T06:11:54;46.70;;;27.50;;
6955;SDS011;50345;51.136;16.886;2024-03-08T06:14:19;44.17;;;30.53;;
6955;SDS011;50345;51.136;16.886;2024-03-08T06:16:45;44.80;;;30.50;;
6955;SDS011;50345;51.136;16.886;2024-03-08T06:19:11;43.00;;;30.35;;
6955;SDS011;50345;51.136;16.886;2024-03-08T06:21:38;41.88;;;29.80;;
6955;SDS011;50345;51.136;16.886;2024-03-08T06:24:03;45.50;;;27.87;;
6955;SDS011;50345;51.136;16.886;2024-03-08T06:26:29;42.10;;;29.30;;
6955;SDS011;50345;51.136;16.886;2024-03-08T06:28:55;48.37;;;30.97;;
6955;SDS011;50345;51.136;16.886;2024-03-08T06:31:21;43.30;;;27.70;;
6955;SDS011;50345;51.136;16.886;2024-03-08T06:33:46;44.50;;;29.00;;
6955;SDS011;50345;51.136;16.886;2024-03-08T06:36:15;48.22;;;30.20;;
6955;SDS011;50345;51.136;16.886;2024-03-08T06:38:43;47.22;;;31.20;;
6955;SDS011;50345;51.136;16.886;2024-03-08T06:41:11;43.15;;;30.00;;
6955;SDS011;50345;51.136;16.886;2024-03-08T06:43:41;47.03;;;29.52;;
6955;SDS011;50345;51.136;16.886;2024-03-08T06:46:10;40.72;;;29.38;;
6955;SDS011;50345;51.136;16.886;2024-03-08T06:48:38;48.97;;;31.65;;
6955;SDS011;50345;51.136;16.886;2024-03-08T06:51:04;47.80;;;31.45;;
6955;SDS011;50345;51.136;16.886;2024-03-08T06:53:30;59.42;;;32.53;;
6955;SDS011;50345;51.136;16.886;2024-03-08T06:55:56;44.88;;;31.98;;
6955;SDS011;50345;51.136;16.886;2024-03-08T06:58:22;47.10;;;33.40;;
6955;SDS011;50345;51.136;16.886;2024-03-08T07:00:48;50.70;;;31.87;;
6955;SDS011;50345;51.136;16.886;2024-03-08T07:03:17;50.33;;;33.10;;
6955;SDS011;50345;51.136;16.886;2024-03-08T07:05:43;47.53;;;32.70;;
6955;SDS011;50345;51.136;16.886;2024-03-08T07:08:08;45.57;;;31.33;;
6955;SDS011;50345;51.136;16.886;2024-03-08T07:10:34;51.90;;;31.03;;
6955;SDS011;50345;51.136;16.886;2024-03-08T07:13:02;47.17;;;30.52;;
6955;SDS011;50345;51.136;16.886;2024-03-08T07:15:28;41.00;;;31.20;;
6955;SDS011;50345;51.136;16.886;2024-03-08T07:17:53;51.90;;;29.30;;
6955;SDS011;50345;51.136;16.886;2024-03-08T07:20:19;40.35;;;30.98;;
6955;SDS011;50345;51.136;16.886;2024-03-08T07:22:45;39.97;;;30.10;;
6955;SDS011;50345;51.136;16.886;2024-03-08T07:25:18;45.00;;;32.42;;
6955;SDS011;50345;51.136;16.886;2024-03-08T07:27:47;45.88;;;32.47;;
6955;SDS011;50345;51.136;16.886;2024-03-08T07:30:13;43.83;;;30.70;;
6955;SDS011;50345;51.136;16.886;2024-03-08T07:32:59;39.72;;;30.67;;
6955;SDS011;50345;51.136;16.886;2024-03-08T07:35:27;44.85;;;31.00;;
6955;SDS011;50345;51.136;16.886;2024-03-08T07:37:53;48.72;;;33.22;;
6955;SDS011;50345;51.136;16.886;2024-03-08T07:40:24;45.70;;;31.90;;
6955;SDS011;50345;51.136;16.886;2024-03-08T07:42:50;47.97;;;33.00;;
6955;SDS011;50345;51.136;16.886;2024-03-08T07:45:16;42.70;;;31.57;;
6955;SDS011;50345;51.136;16.886;2024-03-08T07:47:42;47.60;;;32.80;;
6955;SDS011;50345;51.136;16.886;2024-03-08T07:50:08;45.83;;;31.67;;
6955;SDS011;50345;51.136;16.886;2024-03-08T07:52:34;47.10;;;33.20;;
6955;SDS011;50345;51.136;16.886;2024-03-08T07:55:01;47.35;;;32.75;;
6955;SDS011;50345;51.136;16.886;2024-03-08T07:57:28;50.30;;;30.45;;
6955;SDS011;50345;51.136;16.886;2024-03-08T07:59:54;45.00;;;32.40;;
6955;SDS011;50345;51.136;16.886;2024-03-08T08:02:20;47.77;;;34.67;;
6955;SDS011;50345;51.136;16.886;2024-03-08T08:04:46;49.07;;;34.43;;
6955;SDS011;50345;51.136;16.886;2024-03-08T08:07:11;48.23;;;35.57;;
6955;SDS011;50345;51.136;16.886;2024-03-08T08:09:37;47.63;;;33.87;;
6955;SDS011;50345;51.136;16.886;2024-03-08T08:12:03;46.57;;;32.93;;
6955;SDS011;50345;51.136;16.886;2024-03-08T08:14:29;49.97;;;34.58;;
6955;SDS011;50345;51.136;16.886;2024-03-08T08:16:55;45.85;;;33.15;;
6955;SDS011;50345;51.136;16.886;2024-03-08T08:19:22;46.80;;;33.85;;
6955;SDS011;50345;51.136;16.886;2024-03-08T08:21:48;44.13;;;31.80;;
6955;SDS011;50345;51.136;16.886;2024-03-08T08:24:14;49.28;;;33.85;;
6955;SDS011;50345;51.136;16.886;2024-03-08T08:26:40;45.47;;;31.10;;
6955;SDS011;50345;51.136;16.886;2024-03-08T08:29:06;45.65;;;35.28;;
6955;SDS011;50345;51.136;16.886;2024-03-08T08:31:32;47.88;;;34.45;;
6955;SDS011;50345;51.136;16.886;2024-03-08T08:33:58;44.30;;;33.47;;
6955;SDS011;50345;51.136;16.886;2024-03-08T08:36:24;49.88;;;33.25;;
6955;SDS011;50345;51.136;16.886;2024-03-08T08:38:50;51.03;;;33.00;;
6955;SDS011;50345;51.136;16.886;2024-03-08T08:41:18;44.47;;;33.85;;
6955;SDS011;50345;51.136;16.886;2024-03-08T08:43:44;41.57;;;31.97;;
6955;SDS011;50345;51.136;16.886;2024-03-08T08:46:10;40.70;;;32.80;;
6955;SDS011;50345;51.136;16.886;2024-03-08T08:48:39;47.95;;;31.48;;
6955;SDS011;50345;51.136;16.886;2024-03-08T08:51:13;44.38;;;32.70;;
6955;SDS011;50345;51.136;16.886;2024-03-08T08:53:40;36.25;;;30.08;;
6955;SDS011;50345;51.136;16.886;2024-03-08T08:56:08;38.63;;;29.60;;
6955;SDS011;50345;51.136;16.886;2024-03-08T08:58:34;41.28;;;29.40;;
6955;SDS011;50345;51.136;16.886;2024-03-08T09:00:59;44.23;;;30.37;;
6955;SDS011;50345;51.136;16.886;2024-03-08T09:03:26;38.63;;;27.35;;
6955;SDS011;50345;51.136;16.886;2024-03-08T09:05:53;30.80;;;25.48;;
6955;SDS011;50345;51.136;16.886;2024-03-08T09:08:18;37.87;;;27.57;;
6955;SDS011;50345;51.136;16.886;2024-03-08T09:10:44;32.78;;;26.40;;
6955;SDS011;50345;51.136;16.886;2024-03-08T09:13:10;32.87;;;26.53;;
6955;SDS011;50345;51.136;16.886;2024-03-08T09:15:37;33.90;;;26.80;;
6955;SDS011;50345;51.136;16.886;2024-03-08T09:18:05;36.03;;;26.58;;
6955;SDS011;50345;51.136;16.886;2024-03-08T09:20:31;28.90;;;24.52;;
6955;SDS011;50345;51.136;16.886;2024-03-08T09:22:57;30.27;;;24.83;;
6955;SDS011;50345;51.136;16.886;2024-03-08T09:25:22;30.57;;;24.97;;
6955;SDS011;50345;51.136;16.886;2024-03-08T09:27:48;29.23;;;24.93;;
6955;SDS011;50345;51.136;16.886;2024-03-08T09:30:14;30.88;;;24.05;;
6955;SDS011;50345;51.136;16.886;2024-03-08T09:32:40;26.80;;;23.90;;
6955;SDS011;50345;51.136;16.886;2024-03-08T09:35:08;28.98;;;25.23;;
6955;SDS011;50345;51.136;16.886;2024-03-08T09:37:34;27.90;;;23.37;;
6955;SDS011;50345;51.136;16.886;2024-03-08T09:40:00;27.15;;;24.10;;
6955;SDS011;50345;51.136;16.886;2024-03-08T09:42:29;30.15;;;25.42;;
6955;SDS011;50345;51.136;16.886;2024-03-08T09:44:56;27.15;;;24.35;;
6955;SDS011;50345;51.136;16.886;2024-03-08T09:47:23;28.50;;;23.33;;
6955;SDS011;50345;51.136;16.886;2024-03-08T09:49:52;26.90;;;22.58;;
6955;SDS011;50345;51.136;16.886;2024-03-08T09:52:18;25.77;;;23.00;;
6955;SDS011;50345;51.136;16.886;2024-03-08T09:54:43;25.67;;;23.07;;
6955;SDS011;50345;51.136;16.886;2024-03-08T09:57:09;27.23;;;23.90;;
6955;SDS011;50345;51.136;16.886;2024-03-08T09:59:35;28.40;;;25.42;;
6955;SDS011;50345;51.136;16.886;2024-03-08T10:02:01;36.57;;;27.10;;
6955;SDS011;50345;51.136;16.886;2024-03-08T10:04:28;27.27;;;24.23;;
6955;SDS011;50345;51.136;16.886;2024-03-08T10:06:57;26.10;;;23.40;;
6955;SDS011;50345;51.136;16.886;2024-03-08T10:09:24;44.73;;;25.77;;
6955;SDS011;50345;51.136;16.886;2024-03-08T10:12:01;29.30;;;25.70;;
6955;SDS011;50345;51.136;16.886;2024-03-08T10:14:27;28.13;;;25.17;;
6955;SDS011;50345;51.136;16.886;2024-03-08T10:16:53;28.37;;;24.30;;
6955;SDS011;50345;51.136;16.886;2024-03-08T10:19:19;27.43;;;24.73;;
6955;SDS011;50345;51.136;16.886;2024-03-08T10:21:51;26.70;;;24.13;;
6955;SDS011;50345;51.136;16.886;2024-03-08T10:24:18;25.37;;;22.60;;
6955;SDS011;50345;51.136;16.886;2024-03-08T10:26:44;25.73;;;22.70;;
6955;SDS011;50345;51.136;16.886;2024-03-08T10:29:10;26.60;;;23.83;;
6955;SDS011;50345;51.136;16.886;2024-03-08T10:31:40;27.83;;;25.00;;
6955;SDS011;50345;51.136;16.886;2024-03-08T10:34:09;23.90;;;21.60;;
6955;SDS011;50345;51.136;16.886;2024-03-08T10:36:34;26.77;;;24.07;;
6955;SDS011;50345;51.136;16.886;2024-03-08T10:39:03;26.67;;;24.03;;
6955;SDS011;50345;51.136;16.886;2024-03-08T10:41:36;24.77;;;22.27;;
6955;SDS011;50345;51.136;16.886;2024-03-08T10:44:10;28.17;;;25.27;;
6955;SDS011;50345;51.136;16.886;2024-03-08T10:49:30;27.23;;;24.63;;
6955;SDS011;50345;51.136;16.886;2024-03-08T10:52:01;28.43;;;24.50;;
6955;SDS011;50345;51.136;16.886;2024-03-08T10:54:29;24.97;;;22.57;;
6955;SDS011;50345;51.136;16.886;2024-03-08T10:56:57;26.73;;;24.13;;
6955;SDS011;50345;51.136;16.886;2024-03-08T10:59:24;25.00;;;22.80;;
6955;SDS011;50345;51.136;16.886;2024-03-08T11:01:52;24.07;;;21.73;;
6955;SDS011;50345;51.136;16.886;2024-03-08T11:04:18;22.80;;;20.70;;
6955;SDS011;50345;51.136;16.886;2024-03-08T11:06:47;23.63;;;21.43;;
6955;SDS011;50345;51.136;16.886;2024-03-08T11:09:28;25.40;;;22.97;;
6955;SDS011;50345;51.136;16.886;2024-03-08T11:14:55;23.40;;;21.10;;
6955;SDS011;50345;51.136;16.886;2024-03-08T11:19:59;24.83;;;22.50;;
6955;SDS011;50345;51.136;16.886;2024-03-08T11:22:31;24.27;;;21.97;;
6955;SDS011;50345;51.136;16.886;2024-03-08T11:24:58;22.90;;;20.50;;
6955;SDS011;50345;51.136;16.886;2024-03-08T11:27:28;22.47;;;20.23;;
6955;SDS011;50345;51.136;16.886;2024-03-08T11:30:02;22.67;;;20.47;;
6955;SDS011;50345;51.136;16.886;2024-03-08T11:32:43;20.80;;;18.87;;
6955;SDS011;50345;51.136;16.886;2024-03-08T11:35:20;22.73;;;20.50;;
6955;SDS011;50345;51.136;16.886;2024-03-08T11:37:47;20.27;;;18.37;;
6955;SDS011;50345;51.136;16.886;2024-03-08T11:40:13;21.33;;;19.10;;
6955;SDS011;50345;51.136;16.886;2024-03-08T11:42:44;21.53;;;19.63;;
6955;SDS011;50345;51.136;16.886;2024-03-08T11:45:14;20.20;;;18.33;;
6955;SDS011;50345;51.136;16.886;2024-03-08T11:47:46;20.50;;;18.40;;
6955;SDS011;50345;51.136;16.886;2024-03-08T11:50:12;19.80;;;18.00;;
6955;SDS011;50345;51.136;16.886;2024-03-08T11:52:39;19.07;;;17.27;;
6955;SDS011;50345;51.136;16.886;2024-03-08T11:55:05;19.13;;;17.20;;
6955;SDS011;50345;51.136;16.886;2024-03-08T11:57:31;21.10;;;18.77;;
6955;SDS011;50345;51.136;16.886;2024-03-08T11:59:57;19.83;;;17.90;;
6955;SDS011;50345;51.136;16.886;2024-03-08T12:02:31;20.07;;;18.27;;
6955;SDS011;50345;51.136;16.886;2024-03-08T12:04:57;18.90;;;17.00;;
6955;SDS011;50345;51.136;16.886;2024-03-08T12:07:28;16.90;;;15.30;;
6955;SDS011;50345;51.136;16.886;2024-03-08T12:10:16;19.60;;;17.80;;
6955;SDS011;50345;51.136;16.886;2024-03-08T12:12:50;18.60;;;16.90;;
6955;SDS011;50345;51.136;16.886;2024-03-08T12:15:21;18.87;;;16.83;;
6955;SDS011;50345;51.136;16.886;2024-03-08T12:17:49;17.47;;;15.90;;
6955;SDS011;50345;51.136;16.886;2024-03-08T12:20:23;17.43;;;15.90;;
6955;SDS011;50345;51.136;16.886;2024-03-08T12:22:56;17.10;;;15.60;;
6955;SDS011;50345;51.136;16.886;2024-03-08T12:25:23;17.07;;;15.37;;
6955;SDS011;50345;51.136;16.886;2024-03-08T12:27:51;16.50;;;14.93;;
6955;SDS011;50345;51.136;16.886;2024-03-08T12:32:50;16.70;;;15.20;;
6955;SDS011;50345;51.136;16.886;2024-03-08T12:35:18;16.10;;;14.70;;
6955;SDS011;50345;51.136;16.886;2024-03-08T12:37:57;16.80;;;15.10;;
6955;SDS011;50345;51.136;16.886;2024-03-08T12:40:27;18.37;;;16.57;;
6955;SDS011;50345;51.136;16.886;2024-03-08T12:42:55;18.03;;;16.47;;
6955;SDS011;50345;51.136;16.886;2024-03-08T12:45:21;17.13;;;15.53;;
6955;SDS011;50345;51.136;16.886;2024-03-08T12:47:49;18.70;;;16.97;;
6955;SDS011;50345;51.136;16.886;2024-03-08T12:50:15;26.00;;;18.10;;
6955;SDS011;50345;51.136;16.886;2024-03-08T12:52:42;15.73;;;14.33;;
6955;SDS011;50345;51.136;16.886;2024-03-08T12:55:08;19.23;;;17.43;;
6955;SDS011;50345;51.136;16.886;2024-03-08T12:57:34;20.07;;;18.13;;
6955;SDS011;50345;51.136;16.886;2024-03-08T13:00:02;18.67;;;16.90;;
6955;SDS011;50345;51.136;16.886;2024-03-08T13:02:29;15.57;;;14.17;;
6955;SDS011;50345;51.136;16.886;2024-03-08T13:04:57;18.83;;;16.63;;
6955;SDS011;50345;51.136;16.886;2024-03-08T13:07:23;18.70;;;16.33;;
6955;SDS011;50345;51.136;16.886;2024-03-08T13:09:53;16.90;;;15.40;;
6955;SDS011;50345;51.136;16.886;2024-03-08T13:12:22;17.40;;;15.57;;
6955;SDS011;50345;51.136;16.886;2024-03-08T13:14:48;18.13;;;16.50;;
6955;SDS011;50345;51.136;16.886;2024-03-08T13:17:14;17.13;;;15.40;;
6955;SDS011;50345;51.136;16.886;2024-03-08T13:19:40;16.63;;;15.00;;
6955;SDS011;50345;51.136;16.886;2024-03-08T13:22:07;17.67;;;15.93;;
6955;SDS011;50345;51.136;16.886;2024-03-08T13:24:37;18.73;;;16.50;;
6955;SDS011;50345;51.136;16.886;2024-03-08T13:27:06;19.50;;;17.50;;
6955;SDS011;50345;51.136;16.886;2024-03-08T13:29:44;18.67;;;16.70;;
6955;SDS011;50345;51.136;16.886;2024-03-08T13:32:14;18.47;;;16.87;;
6955;SDS011;50345;51.136;16.886;2024-03-08T13:34:40;19.80;;;16.83;;
6955;SDS011;50345;51.136;16.886;2024-03-08T13:37:19;18.63;;;16.73;;
6955;SDS011;50345;51.136;16.886;2024-03-08T13:39:44;17.83;;;16.13;;
6955;SDS011;50345;51.136;16.886;2024-03-08T13:42:11;17.50;;;15.90;;
6955;SDS011;50345;51.136;16.886;2024-03-08T13:44:38;16.70;;;15.10;;
6955;SDS011;50345;51.136;16.886;2024-03-08T13:47:05;18.53;;;16.73;;
6955;SDS011;50345;51.136;16.886;2024-03-08T13:49:32;18.03;;;16.40;;
6955;SDS011;50345;51.136;16.886;2024-03-08T13:51:58;20.30;;;18.17;;
6955;SDS011;50345;51.136;16.886;2024-03-08T13:54:26;18.40;;;16.60;;
6955;SDS011;50345;51.136;16.886;2024-03-08T13:56:52;17.03;;;15.57;;
6955;SDS011;50345;51.136;16.886;2024-03-08T13:59:19;17.97;;;16.17;;
6955;SDS011;50345;51.136;16.886;2024-03-08T14:01:47;18.60;;;16.77;;
6955;SDS011;50345;51.136;16.886;2024-03-08T14:04:14;16.97;;;15.57;;
6955;SDS011;50345;51.136;16.886;2024-03-08T14:06:42;19.00;;;17.30;;
6955;SDS011;50345;51.136;16.886;2024-03-08T14:09:09;17.80;;;16.00;;
6955;SDS011;50345;51.136;16.886;2024-03-08T14:11:42;18.57;;;16.63;;
6955;SDS011;50345;51.136;16.886;2024-03-08T14:14:09;18.87;;;16.87;;
6955;SDS011;50345;51.136;16.886;2024-03-08T14:16:37;17.60;;;15.70;;
6955;SDS011;50345;51.136;16.886;2024-03-08T14:19:03;17.20;;;15.70;;
6955;SDS011;50345;51.136;16.886;2024-03-08T14:21:30;17.43;;;15.83;;
6955;SDS011;50345;51.136;16.886;2024-03-08T14:23:56;16.80;;;15.20;;
6955;SDS011;50345;51.136;16.886;2024-03-08T14:26:22;16.57;;;14.97;;
6955;SDS011;50345;51.136;16.886;2024-03-08T14:28:48;19.03;;;17.23;;
6955;SDS011;50345;51.136;16.886;2024-03-08T14:31:16;24.83;;;22.33;;
6955;SDS011;50345;51.136;16.886;2024-03-08T14:33:44;17.20;;;15.70;;